首页
METAR-TAF:

METAR-TAF

机场 :

Homestead, 佛罗里达州, 美国

纬度: 25-29N, 经度: 080-23W, 海拔: 2米

当前天气观测

该预报发布于22分钟前的12:56 UTC
风速12节,风向东北
温度 20°C
湿度 68%
气压 1021 hPa
能見度: 16.1公里
天空无云

METAR: KHST 231256Z AUTO 05012KT 10SM CLR 20/14 A3016 RMK AO2 SLP217 T02010142

时间: 08:18 (13:18 UTC)

预报

该预报发布于1小时和5分钟前的12:13 UTC
预报有效从23日的 12点(UTC)到 24日的 18点(UTC)
风速6节,风向多变
能见度10公里或以上
少量云层高于3500英尺
散云层高于5000英尺
成为
从 23日的 14点(UTC)到 23日的 15点(UTC)
风速12节,风向,有时为20节阵风
能见度10公里或以上
散云层高于3500英尺
成为
从 23日的 21点(UTC)到 23日的 22点(UTC)
风速6节,风向多变
能见度10公里或以上
少量云层高于3000英尺
成为
从 24日的 14点(UTC)到 24日的 15点(UTC)
风速12节,风向东转东南,有时为18节阵风
能见度10公里或以上
少量云层高于3500英尺

TAF: KHST 231213Z 2312/2418 VRB06KT 9999 FEW035 SCT050 QNH3014INS BECMG 2314/2315 08012G20KT 9999 SCT035 QNH3012INS BECMG 2321/2322 VRB06KT 9999 FEW030 QNH3008INS BECMG 2414/2415 11012G18KT 9999 FEW035 QNH3002INS TX24/2319Z TN17/2312Z

超过4000个机场的气象观测和天气预报(METAR&TAF报告)。

可查询的气象台以黄色和红色小点在地图上表示。

将鼠标移到小点上方,可查看气象台名称。

然后点击查看天气观测和预报。

如需切换地图:点击带黑十字的绿色按钮放大地图;点击带横线的绿色按钮缩小地图;或者点击绿色箭头查看邻近地区的地图。


METAR-TAF: